Time;durP1;ratioP1;P1;durP2;ratioP2;P2;SDS_P1;SDS_P2;PMS_P1;PMS_P2;Temp;Humidity;BMP_temperature;BMP_pressure;BME280_temperature;BME280_humidity;BME280_pressure;Samples;Min_cycle;Max_cycle;Signal;HPM_P1;HPM_P2
2021/07/19 00:07:57;;;;;;;11.60;6.30;;;;;;;18.59;100.00;100292.48;714057;1202;115849;-74
2021/07/19 00:23:00;;;;;;;12.60;6.58;;;;;;;18.15;100.00;100301.38;714383;1202;114692;-73
2021/07/19 00:38:02;;;;;;;13.48;6.80;;;;;;;17.72;100.00;100301.96;713964;1200;114913;-74
2021/07/19 00:53:07;;;;;;;12.48;6.50;;;;;;;17.61;100.00;100312.01;713930;1202;115793;-73
2021/07/19 01:08:10;;;;;;;11.83;6.73;;;;;;;17.55;100.00;100306.60;713917;1200;115996;-73
2021/07/19 01:23:22;;;;;;;13.58;6.55;;;;;;;17.58;100.00;100303.61;713913;1202;114720;-73
2021/07/19 01:38:24;;;;;;;16.40;7.90;;;;;;;17.63;100.00;100301.21;714125;1202;114440;-74
2021/07/19 01:53:31;;;;;;;10.28;6.63;;;;;;;17.36;100.00;100308.77;714003;1201;115724;-73
2021/07/19 02:08:36;;;;;;;11.90;6.73;;;;;;;17.05;100.00;100309.69;714079;1202;115073;-73
2021/07/19 02:23:41;;;;;;;14.45;6.70;;;;;;;16.99;100.00;100307.73;713996;1202;115114;-72
2021/07/19 02:38:48;;;;;;;12.08;6.83;;;;;;;16.90;100.00;100312.25;714180;1203;115927;-75
2021/07/19 02:53:52;;;;;;;10.73;6.53;;;;;;;16.78;100.00;100324.23;714449;1177;114880;-75
2021/07/19 03:08:56;;;;;;;12.78;6.65;;;;;;;16.72;100.00;100320.47;714083;1202;115991;-73
2021/07/19 03:24:00;;;;;;;14.00;6.45;;;;;;;16.68;100.00;100326.27;714004;1202;114378;-74
2021/07/19 03:39:04;;;;;;;15.00;7.70;;;;;;;16.61;100.00;100334.91;714674;1176;114331;-74
2021/07/19 03:54:07;;;;;;;15.23;7.88;;;;;;;16.71;100.00;100342.65;714865;1203;115369;-73
2021/07/19 04:09:11;;;;;;;11.70;7.43;;;;;;;17.02;100.00;100349.77;714260;1202;115906;-73
2021/07/19 04:24:13;;;;;;;20.00;8.85;;;;;;;17.11;100.00;100343.41;714392;1202;114828;-73
2021/07/19 04:39:15;;;;;;;14.63;7.65;;;;;;;17.45;100.00;100354.60;713920;1201;114469;-74
2021/07/19 04:54:22;;;;;;;18.05;7.30;;;;;;;18.00;100.00;100342.02;714173;1200;116046;-74
2021/07/19 05:09:26;;;;;;;11.27;6.83;;;;;;;18.33;100.00;100365.53;716893;1166;114803;-73
2021/07/19 05:24:30;;;;;;;11.60;6.40;;;;;;;18.73;100.00;100363.35;714144;1202;115458;-71
2021/07/19 05:39:32;;;;;;;12.17;5.70;;;;;;;19.09;100.00;100361.72;714876;1202;115392;-71
2021/07/19 05:54:34;;;;;;;14.67;4.60;;;;;;;20.26;100.00;100357.70;714455;1200;114646;-73
2021/07/19 06:09:37;;;;;;;12.28;4.85;;;;;;;21.01;100.00;100356.98;714194;1202;115447;-74
2021/07/19 06:24:40;;;;;;;11.40;4.73;;;;;;;21.25;100.00;100373.42;714276;1205;114812;-74
2021/07/19 06:39:42;;;;;;;9.38;3.50;;;;;;;21.48;98.92;100390.88;714182;1204;114288;-74
2021/07/19 06:54:44;;;;;;;19.18;4.00;;;;;;;22.52;93.95;100410.70;715331;1203;114139;-87
2021/07/19 07:09:46;;;;;;;11.23;3.33;;;;;;;22.70;86.41;100411.86;714069;1202;114682;-82
2021/07/19 07:24:55;;;;;;;11.20;4.40;;;;;;;23.15;80.66;100416.39;714834;1203;114044;-81
2021/07/19 07:39:58;;;;;;;6.93;3.10;;;;;;;23.37;77.54;100417.70;713750;1202;114750;-80
2021/07/19 07:55:00;;;;;;;20.58;13.50;;;;;;;23.30;74.56;100406.21;713925;1202;114008;-78
2021/07/19 08:10:05;;;;;;;9.53;3.77;;;;;;;23.81;69.93;100403.53;713541;1203;114028;-76
2021/07/19 08:25:07;;;;;;;9.07;3.77;;;;;;;23.74;66.86;100414.31;713705;1178;114500;-76
2021/07/19 08:40:12;;;;;;;6.78;3.03;;;;;;;24.92;66.66;100404.40;713690;1179;114445;-77
2021/07/19 08:55:15;;;;;;;4.23;2.20;;;;;;;24.50;63.88;100403.48;713723;1180;114019;-77
2021/07/19 09:10:27;;;;;;;7.50;2.85;;;;;;;25.55;61.82;100394.20;713915;1175;114725;-77
2021/07/19 09:25:29;;;;;;;4.23;2.70;;;;;;;24.91;59.72;100401.95;713754;1203;116910;-76
2021/07/19 09:40:33;;;;;;;5.20;2.65;;;;;;;24.57;60.91;100401.53;714256;1203;115687;-77
2021/07/19 09:55:36;;;;;;;7.53;3.15;;;;;;;24.52;60.08;100401.38;713581;1201;113892;-76
2021/07/19 10:10:40;;;;;;;7.50;3.00;;;;;;;24.92;58.67;100392.86;714407;1202;114752;-75
2021/07/19 10:25:42;;;;;;;8.87;3.33;;;;;;;25.45;56.67;100388.58;714208;1200;113949;-75
2021/07/19 10:40:51;;;;;;;6.45;3.05;;;;;;;26.55;56.60;100383.49;714236;1182;114143;-75
2021/07/19 10:55:59;;;;;;;6.57;3.57;;;;;;;26.94;54.57;100379.39;716209;1203;115220;-83
2021/07/19 11:11:01;;;;;;;10.35;3.08;;;;;;;27.29;56.72;100373.77;717211;1196;114394;-84
2021/07/19 11:26:06;;;;;;;6.70;3.20;;;;;;;27.04;54.27;100374.99;722490;1166;115004;-80
2021/07/19 11:41:40;;;;;;;4.77;2.90;;;;;;;28.16;52.52;100354.59;717866;1205;115380;-79
2021/07/19 11:56:47;;;;;;;5.13;2.68;;;;;;;28.46;51.50;100356.83;717281;1203;115878;-81
2021/07/19 12:11:53;;;;;;;4.00;3.08;;;;;;;28.51;51.87;100351.49;715906;1202;114614;-82
2021/07/19 12:27:01;;;;;;;6.07;3.13;;;;;;;28.50;52.33;100351.75;717533;1202;114021;-79
2021/07/19 12:42:07;;;;;;;10.50;7.50;;;;;;;26.41;51.33;100347.17;718188;1178;114127;-80
2021/07/19 12:57:09;;;;;;;8.18;3.88;;;;;;;26.57;52.90;100342.91;716486;1177;114231;-77
2021/07/19 13:12:12;;;;;;;10.55;4.35;;;;;;;26.07;54.22;100345.14;714675;1178;114049;-77
2021/07/19 13:27:16;;;;;;;17.03;8.60;;;;;;;27.18;53.59;100347.76;714965;1202;114805;-78
2021/07/19 13:42:21;;;;;;;10.73;6.50;;;;;;;28.31;51.21;100330.52;716106;1200;114117;-78
2021/07/19 13:57:23;;;;;;;8.00;4.50;;;;;;;26.85;50.10;100328.63;718376;1202;114358;-78
2021/07/19 14:12:25;;;;;;;13.43;8.90;;;;;;;26.70;52.31;100331.84;715653;1179;113895;-79
2021/07/19 14:27:29;;;;;;;8.10;4.70;;;;;;;28.03;52.42;100318.87;715074;1205;115308;-77
2021/07/19 14:42:31;;;;;;;9.83;6.00;;;;;;;28.23;50.66;100320.18;713862;1177;113861;-79
2021/07/19 14:57:34;;;;;;;5.78;2.93;;;;;;;28.81;50.29;100303.50;714337;1200;113315;-81
2021/07/19 15:12:37;;;;;;;12.50;8.60;;;;;;;28.56;50.14;100288.70;715787;1202;116027;-81
2021/07/19 15:27:40;;;;;;;7.25;4.80;;;;;;;28.68;49.93;100283.17;715618;1178;115400;-81
2021/07/19 15:42:43;;;;;;;10.73;7.10;;;;;;;28.20;50.71;100269.43;715189;1191;113982;-81
2021/07/19 15:57:45;;;;;;;6.93;3.93;;;;;;;27.27;51.10;100276.28;717205;1203;115273;-82
2021/07/19 16:12:49;;;;;;;13.15;6.68;;;;;;;27.28;52.21;100263.63;717224;1203;114184;-80
2021/07/19 16:27:51;;;;;;;7.68;4.13;;;;;;;26.70;52.23;100278.05;715970;1177;114131;-81
2021/07/19 16:42:53;;;;;;;5.33;3.48;;;;;;;26.68;52.99;100274.77;715539;1202;114440;-80
2021/07/19 16:57:55;;;;;;;12.17;6.17;;;;;;;25.77;53.79;100269.25;716368;1178;114183;-80
2021/07/19 17:12:58;;;;;;;7.05;5.15;;;;;;;25.80;55.96;100274.14;715645;1202;114234;-82
2021/07/19 17:28:02;;;;;;;11.68;5.63;;;;;;;25.08;57.89;100267.96;714002;1201;113894;-81
2021/07/19 17:43:05;;;;;;;17.03;8.53;;;;;;;24.72;59.64;100272.45;713966;1202;115703;-79
2021/07/19 17:58:07;;;;;;;12.73;6.63;;;;;;;24.32;62.83;100286.38;713895;1206;114096;-80
2021/07/19 18:13:10;;;;;;;16.73;10.90;;;;;;;24.18;66.58;100286.55;713510;1194;114651;-80
2021/07/19 18:43:34;;;;;;;12.53;4.30;;;;;;;23.20;71.18;100321.08;713672;1181;113709;-80
2021/07/19 18:58:36;;;;;;;10.75;4.88;;;;;;;22.96;73.24;100346.72;713678;1202;113885;-80
2021/07/19 19:13:39;;;;;;;17.98;6.98;;;;;;;22.75;74.17;100348.71;714043;1205;115003;-79
2021/07/19 19:28:42;;;;;;;11.90;6.00;;;;;;;22.43;75.67;100334.47;714454;1200;115482;-79
2021/07/19 19:43:44;;;;;;;16.10;8.70;;;;;;;22.32;78.23;100343.94;713811;1177;114072;-78
2021/07/19 19:58:46;;;;;;;12.45;5.30;;;;;;;22.13;79.94;100356.31;713852;1177;113977;-80
2021/07/19 20:13:49;;;;;;;8.07;4.77;;;;;;;21.86;81.93;100367.06;714084;1200;114626;-79
2021/07/19 20:28:51;;;;;;;12.07;5.73;;;;;;;21.83;83.48;100366.66;714131;1204;113650;-80
2021/07/19 20:43:53;;;;;;;9.15;5.28;;;;;;;21.72;83.22;100368.11;713815;1203;115381;-80
2021/07/19 20:58:55;;;;;;;14.95;5.65;;;;;;;21.54;83.39;100366.08;714036;1202;115423;-81
2021/07/19 21:13:58;;;;;;;11.40;5.20;;;;;;;21.48;85.18;100382.88;714578;1200;114155;-80
2021/07/19 21:29:01;;;;;;;5.08;3.20;;;;;;;21.14;86.69;100369.48;714348;1205;115529;-79
2021/07/19 21:44:03;;;;;;;7.30;3.10;;;;;;;21.00;87.81;100357.99;713789;1202;115471;-78
2021/07/19 21:59:05;;;;;;;8.88;4.25;;;;;;;20.86;90.15;100366.98;714597;1203;113807;-80
2021/07/19 22:14:07;;;;;;;6.83;3.33;;;;;;;20.83;92.59;100375.39;713820;1193;113814;-79
2021/07/19 22:29:14;;;;;;;4.93;3.03;;;;;;;20.72;94.40;100382.94;713844;1178;113870;-80
2021/07/19 22:44:16;;;;;;;7.18;2.75;;;;;;;20.66;95.79;100393.55;713511;1202;115503;-79
2021/07/19 22:59:18;;;;;;;4.73;3.07;;;;;;;20.54;96.97;100379.97;713877;1190;114430;-79
2021/07/19 23:14:20;;;;;;;5.55;3.40;;;;;;;20.40;99.41;100387.91;713581;1205;114930;-79
2021/07/19 23:29:22;;;;;;;3.75;2.80;;;;;;;20.27;100.00;100374.49;713659;1193;114679;-79
2021/07/19 23:44:24;;;;;;;4.50;2.63;;;;;;;20.23;100.00;100373.25;713642;1206;113475;-79
2021/07/19 23:59:26;;;;;;;4.18;2.70;;;;;;;20.26;100.00;100381.67;713522;1205;114323;-81
